sensor_id;sensor_type;location;lat;lon;timestamp;P1;durP1;ratioP1;P2;durP2;ratioP2
21402;SDS011;10862;51.886;17.078;2022-12-07T00:01:04;10.97;;;10.47;;
21402;SDS011;10862;51.886;17.078;2022-12-07T00:03:41;27.53;;;25.47;;
21402;SDS011;10862;51.886;17.078;2022-12-07T00:06:09;21.43;;;20.43;;
21402;SDS011;10862;51.886;17.078;2022-12-07T00:08:36;24.33;;;23.13;;
21402;SDS011;10862;51.886;17.078;2022-12-07T00:11:07;22.20;;;21.10;;
21402;SDS011;10862;51.886;17.078;2022-12-07T00:13:35;24.03;;;22.70;;
21402;SDS011;10862;51.886;17.078;2022-12-07T00:16:17;20.40;;;19.23;;
21402;SDS011;10862;51.886;17.078;2022-12-07T00:18:44;19.53;;;18.53;;
21402;SDS011;10862;51.886;17.078;2022-12-07T00:21:17;18.83;;;17.93;;
21402;SDS011;10862;51.886;17.078;2022-12-07T00:23:45;24.97;;;23.77;;
21402;SDS011;10862;51.886;17.078;2022-12-07T00:28:44;22.97;;;21.87;;
21402;SDS011;10862;51.886;17.078;2022-12-07T00:31:12;21.57;;;20.57;;
21402;SDS011;10862;51.886;17.078;2022-12-07T00:33:38;20.63;;;19.63;;
21402;SDS011;10862;51.886;17.078;2022-12-07T00:36:06;21.23;;;20.23;;
21402;SDS011;10862;51.886;17.078;2022-12-07T00:38:34;20.83;;;19.83;;
21402;SDS011;10862;51.886;17.078;2022-12-07T00:41:02;24.43;;;23.23;;
21402;SDS011;10862;51.886;17.078;2022-12-07T00:43:39;26.17;;;24.87;;
21402;SDS011;10862;51.886;17.078;2022-12-07T00:46:05;24.63;;;23.33;;
21402;SDS011;10862;51.886;17.078;2022-12-07T00:48:31;23.17;;;21.97;;
21402;SDS011;10862;51.886;17.078;2022-12-07T00:50:57;24.20;;;23.00;;
21402;SDS011;10862;51.886;17.078;2022-12-07T00:53:23;24.90;;;23.50;;
21402;SDS011;10862;51.886;17.078;2022-12-07T00:55:48;23.57;;;22.40;;
21402;SDS011;10862;51.886;17.078;2022-12-07T00:58:14;22.83;;;21.67;;
21402;SDS011;10862;51.886;17.078;2022-12-07T01:00:41;22.97;;;21.77;;
21402;SDS011;10862;51.886;17.078;2022-12-07T01:03:09;24.30;;;23.07;;
21402;SDS011;10862;51.886;17.078;2022-12-07T01:05:36;22.50;;;21.40;;
21402;SDS011;10862;51.886;17.078;2022-12-07T01:08:02;16.43;;;15.63;;
21402;SDS011;10862;51.886;17.078;2022-12-07T01:10:28;11.70;;;11.20;;
21402;SDS011;10862;51.886;17.078;2022-12-07T01:12:55;17.73;;;16.93;;
21402;SDS011;10862;51.886;17.078;2022-12-07T01:15:21;14.53;;;13.93;;
21402;SDS011;10862;51.886;17.078;2022-12-07T01:17:47;11.17;;;10.67;;
21402;SDS011;10862;51.886;17.078;2022-12-07T01:20:13;10.03;;;9.53;;
21402;SDS011;10862;51.886;17.078;2022-12-07T01:22:41;12.00;;;11.50;;
21402;SDS011;10862;51.886;17.078;2022-12-07T01:25:07;12.97;;;12.17;;
21402;SDS011;10862;51.886;17.078;2022-12-07T01:27:34;12.30;;;11.50;;
21402;SDS011;10862;51.886;17.078;2022-12-07T01:30:00;11.90;;;11.03;;
21402;SDS011;10862;51.886;17.078;2022-12-07T01:32:27;9.87;;;9.37;;
21402;SDS011;10862;51.886;17.078;2022-12-07T01:34:54;11.10;;;10.60;;
21402;SDS011;10862;51.886;17.078;2022-12-07T01:37:19;9.50;;;9.10;;
21402;SDS011;10862;51.886;17.078;2022-12-07T01:39:48;10.53;;;10.03;;
21402;SDS011;10862;51.886;17.078;2022-12-07T01:42:14;10.60;;;10.17;;
21402;SDS011;10862;51.886;17.078;2022-12-07T01:47:47;10.50;;;10.00;;
21402;SDS011;10862;51.886;17.078;2022-12-07T01:50:19;10.60;;;10.10;;
21402;SDS011;10862;51.886;17.078;2022-12-07T01:52:45;11.03;;;10.53;;
21402;SDS011;10862;51.886;17.078;2022-12-07T01:55:16;11.83;;;11.33;;
21402;SDS011;10862;51.886;17.078;2022-12-07T01:57:48;11.67;;;11.07;;
21402;SDS011;10862;51.886;17.078;2022-12-07T02:00:16;11.93;;;11.43;;
21402;SDS011;10862;51.886;17.078;2022-12-07T02:02:49;11.57;;;11.07;;
21402;SDS011;10862;51.886;17.078;2022-12-07T02:05:19;11.00;;;10.50;;
21402;SDS011;10862;51.886;17.078;2022-12-07T02:07:45;26.70;;;25.37;;
21402;SDS011;10862;51.886;17.078;2022-12-07T02:10:26;23.07;;;21.97;;
21402;SDS011;10862;51.886;17.078;2022-12-07T02:12:57;19.73;;;18.83;;
21402;SDS011;10862;51.886;17.078;2022-12-07T02:15:34;19.30;;;18.40;;
21402;SDS011;10862;51.886;17.078;2022-12-07T02:18:20;19.40;;;18.50;;
21402;SDS011;10862;51.886;17.078;2022-12-07T02:20:55;18.17;;;17.37;;
21402;SDS011;10862;51.886;17.078;2022-12-07T02:28:36;21.60;;;20.60;;
21402;SDS011;10862;51.886;17.078;2022-12-07T02:31:14;23.07;;;21.87;;
21402;SDS011;10862;51.886;17.078;2022-12-07T02:33:45;21.63;;;20.63;;
21402;SDS011;10862;51.886;17.078;2022-12-07T02:36:18;22.13;;;21.03;;
21402;SDS011;10862;51.886;17.078;2022-12-07T02:39:00;19.73;;;18.83;;
21402;SDS011;10862;51.886;17.078;2022-12-07T02:41:43;19.30;;;18.40;;
21402;SDS011;10862;51.886;17.078;2022-12-07T02:44:17;21.60;;;20.43;;
21402;SDS011;10862;51.886;17.078;2022-12-07T02:46:49;21.87;;;20.77;;
21402;SDS011;10862;51.886;17.078;2022-12-07T02:49:24;20.97;;;19.97;;
21402;SDS011;10862;51.886;17.078;2022-12-07T02:51:52;26.40;;;25.10;;
21402;SDS011;10862;51.886;17.078;2022-12-07T02:54:18;27.97;;;26.57;;
21402;SDS011;10862;51.886;17.078;2022-12-07T03:07:27;18.63;;;17.73;;
21402;SDS011;10862;51.886;17.078;2022-12-07T03:12:56;17.57;;;16.67;;
21402;SDS011;10862;51.886;17.078;2022-12-07T03:18:00;12.90;;;12.30;;
21402;SDS011;10862;51.886;17.078;2022-12-07T03:20:29;14.67;;;13.77;;
21402;SDS011;10862;51.886;17.078;2022-12-07T03:22:56;12.40;;;11.87;;
21402;SDS011;10862;51.886;17.078;2022-12-07T03:25:24;14.03;;;13.27;;
21402;SDS011;10862;51.886;17.078;2022-12-07T03:30:18;11.30;;;10.80;;
21402;SDS011;10862;51.886;17.078;2022-12-07T03:35:18;11.20;;;10.70;;
21402;SDS011;10862;51.886;17.078;2022-12-07T03:37:57;14.13;;;13.43;;
21402;SDS011;10862;51.886;17.078;2022-12-07T03:42:59;13.17;;;12.57;;
21402;SDS011;10862;51.886;17.078;2022-12-07T03:45:37;12.87;;;12.27;;
21402;SDS011;10862;51.886;17.078;2022-12-07T03:51:18;13.70;;;13.10;;
21402;SDS011;10862;51.886;17.078;2022-12-07T03:54:09;13.43;;;12.83;;
21402;SDS011;10862;51.886;17.078;2022-12-07T03:56:36;11.40;;;10.90;;
21402;SDS011;10862;51.886;17.078;2022-12-07T03:59:02;13.50;;;12.90;;
21402;SDS011;10862;51.886;17.078;2022-12-07T04:01:28;12.83;;;12.23;;
21402;SDS011;10862;51.886;17.078;2022-12-07T04:03:54;17.43;;;16.63;;
21402;SDS011;10862;51.886;17.078;2022-12-07T04:06:19;12.47;;;11.80;;
21402;SDS011;10862;51.886;17.078;2022-12-07T04:08:45;16.33;;;15.17;;
21402;SDS011;10862;51.886;17.078;2022-12-07T04:11:11;15.43;;;14.67;;
21402;SDS011;10862;51.886;17.078;2022-12-07T04:13:36;17.00;;;15.93;;
21402;SDS011;10862;51.886;17.078;2022-12-07T04:16:22;15.90;;;15.20;;
21402;SDS011;10862;51.886;17.078;2022-12-07T04:18:47;16.97;;;15.27;;
21402;SDS011;10862;51.886;17.078;2022-12-07T04:21:13;16.93;;;16.13;;
21402;SDS011;10862;51.886;17.078;2022-12-07T04:23:39;16.33;;;15.53;;
21402;SDS011;10862;51.886;17.078;2022-12-07T04:26:04;17.70;;;16.80;;
21402;SDS011;10862;51.886;17.078;2022-12-07T04:28:30;15.47;;;14.63;;
21402;SDS011;10862;51.886;17.078;2022-12-07T04:30:56;9.30;;;8.90;;
21402;SDS011;10862;51.886;17.078;2022-12-07T04:33:21;9.97;;;9.57;;
21402;SDS011;10862;51.886;17.078;2022-12-07T04:35:47;16.37;;;15.33;;
21402;SDS011;10862;51.886;17.078;2022-12-07T04:38:12;12.80;;;12.20;;
21402;SDS011;10862;51.886;17.078;2022-12-07T04:40:38;13.30;;;12.70;;
21402;SDS011;10862;51.886;17.078;2022-12-07T04:43:04;15.37;;;14.67;;
21402;SDS011;10862;51.886;17.078;2022-12-07T04:45:29;13.87;;;13.27;;
21402;SDS011;10862;51.886;17.078;2022-12-07T04:47:55;18.80;;;17.40;;
21402;SDS011;10862;51.886;17.078;2022-12-07T04:50:21;19.30;;;17.90;;
21402;SDS011;10862;51.886;17.078;2022-12-07T04:52:46;13.53;;;12.87;;
21402;SDS011;10862;51.886;17.078;2022-12-07T04:55:12;14.93;;;14.03;;
21402;SDS011;10862;51.886;17.078;2022-12-07T04:57:38;12.80;;;12.00;;
21402;SDS011;10862;51.886;17.078;2022-12-07T05:00:03;13.80;;;13.10;;
21402;SDS011;10862;51.886;17.078;2022-12-07T05:02:30;17.10;;;16.20;;
21402;SDS011;10862;51.886;17.078;2022-12-07T05:04:55;15.63;;;14.90;;
21402;SDS011;10862;51.886;17.078;2022-12-07T05:07:21;12.50;;;11.90;;
21402;SDS011;10862;51.886;17.078;2022-12-07T05:09:47;14.70;;;14.00;;
21402;SDS011;10862;51.886;17.078;2022-12-07T05:12:12;15.70;;;14.37;;
21402;SDS011;10862;51.886;17.078;2022-12-07T05:14:38;15.57;;;14.77;;
21402;SDS011;10862;51.886;17.078;2022-12-07T05:17:04;19.70;;;18.47;;
21402;SDS011;10862;51.886;17.078;2022-12-07T05:19:29;22.30;;;20.73;;
21402;SDS011;10862;51.886;17.078;2022-12-07T05:21:55;18.00;;;17.00;;
21402;SDS011;10862;51.886;17.078;2022-12-07T05:24:20;19.97;;;18.97;;
21402;SDS011;10862;51.886;17.078;2022-12-07T05:26:46;17.70;;;16.90;;
21402;SDS011;10862;51.886;17.078;2022-12-07T05:29:12;17.10;;;16.30;;
21402;SDS011;10862;51.886;17.078;2022-12-07T05:31:39;19.50;;;18.50;;
21402;SDS011;10862;51.886;17.078;2022-12-07T05:34:05;20.77;;;18.77;;
21402;SDS011;10862;51.886;17.078;2022-12-07T05:36:30;15.50;;;14.80;;
21402;SDS011;10862;51.886;17.078;2022-12-07T05:38:56;16.80;;;16.00;;
21402;SDS011;10862;51.886;17.078;2022-12-07T05:41:22;15.33;;;14.60;;
21402;SDS011;10862;51.886;17.078;2022-12-07T05:44:06;15.33;;;14.53;;
21402;SDS011;10862;51.886;17.078;2022-12-07T05:46:32;15.60;;;14.80;;
21402;SDS011;10862;51.886;17.078;2022-12-07T05:48:58;14.50;;;13.80;;
21402;SDS011;10862;51.886;17.078;2022-12-07T05:51:24;14.43;;;13.73;;
21402;SDS011;10862;51.886;17.078;2022-12-07T05:53:49;20.07;;;18.97;;
21402;SDS011;10862;51.886;17.078;2022-12-07T05:56:15;33.23;;;31.53;;
21402;SDS011;10862;51.886;17.078;2022-12-07T05:58:41;27.63;;;26.33;;
21402;SDS011;10862;51.886;17.078;2022-12-07T06:01:25;28.83;;;27.43;;
21402;SDS011;10862;51.886;17.078;2022-12-07T06:03:51;12.70;;;11.43;;
21402;SDS011;10862;51.886;17.078;2022-12-07T06:06:17;14.13;;;13.53;;
21402;SDS011;10862;51.886;17.078;2022-12-07T06:08:42;13.53;;;12.93;;
21402;SDS011;10862;51.886;17.078;2022-12-07T06:11:08;15.40;;;14.70;;
21402;SDS011;10862;51.886;17.078;2022-12-07T06:13:52;17.27;;;16.47;;
21402;SDS011;10862;51.886;17.078;2022-12-07T06:16:18;20.47;;;19.37;;
21402;SDS011;10862;51.886;17.078;2022-12-07T06:18:44;21.67;;;20.27;;
21402;SDS011;10862;51.886;17.078;2022-12-07T06:21:09;16.30;;;15.50;;
21402;SDS011;10862;51.886;17.078;2022-12-07T06:23:35;16.27;;;15.37;;
21402;SDS011;10862;51.886;17.078;2022-12-07T06:26:01;16.20;;;15.40;;
21402;SDS011;10862;51.886;17.078;2022-12-07T06:28:26;16.10;;;15.30;;
21402;SDS011;10862;51.886;17.078;2022-12-07T06:30:58;11.37;;;10.87;;
21402;SDS011;10862;51.886;17.078;2022-12-07T06:33:24;10.50;;;10.00;;
21402;SDS011;10862;51.886;17.078;2022-12-07T06:35:50;13.43;;;12.83;;
21402;SDS011;10862;51.886;17.078;2022-12-07T06:38:16;11.80;;;11.10;;
21402;SDS011;10862;51.886;17.078;2022-12-07T06:40:42;12.23;;;11.60;;
21402;SDS011;10862;51.886;17.078;2022-12-07T06:43:07;10.53;;;10.03;;
21402;SDS011;10862;51.886;17.078;2022-12-07T06:45:33;10.70;;;10.20;;
21402;SDS011;10862;51.886;17.078;2022-12-07T06:47:59;9.53;;;9.13;;
21402;SDS011;10862;51.886;17.078;2022-12-07T06:50:25;11.43;;;10.83;;
21402;SDS011;10862;51.886;17.078;2022-12-07T06:52:51;10.03;;;9.63;;
21402;SDS011;10862;51.886;17.078;2022-12-07T06:55:17;12.07;;;11.57;;
21402;SDS011;10862;51.886;17.078;2022-12-07T06:57:43;12.27;;;11.77;;
21402;SDS011;10862;51.886;17.078;2022-12-07T07:00:09;12.23;;;11.73;;
21402;SDS011;10862;51.886;17.078;2022-12-07T07:02:35;11.33;;;10.83;;
21402;SDS011;10862;51.886;17.078;2022-12-07T07:05:01;12.63;;;12.03;;
21402;SDS011;10862;51.886;17.078;2022-12-07T07:07:27;11.17;;;10.67;;
21402;SDS011;10862;51.886;17.078;2022-12-07T07:09:52;11.37;;;10.70;;
21402;SDS011;10862;51.886;17.078;2022-12-07T07:12:18;12.70;;;12.10;;
21402;SDS011;10862;51.886;17.078;2022-12-07T07:14:43;12.50;;;11.90;;
21402;SDS011;10862;51.886;17.078;2022-12-07T07:17:09;12.40;;;11.90;;
21402;SDS011;10862;51.886;17.078;2022-12-07T07:19:35;14.77;;;14.07;;
21402;SDS011;10862;51.886;17.078;2022-12-07T07:22:02;15.57;;;14.13;;
21402;SDS011;10862;51.886;17.078;2022-12-07T07:24:28;13.70;;;13.00;;
21402;SDS011;10862;51.886;17.078;2022-12-07T07:26:53;17.03;;;15.87;;
21402;SDS011;10862;51.886;17.078;2022-12-07T07:29:19;15.30;;;14.33;;
21402;SDS011;10862;51.886;17.078;2022-12-07T07:31:45;14.10;;;13.20;;
21402;SDS011;10862;51.886;17.078;2022-12-07T07:34:10;13.37;;;12.67;;
21402;SDS011;10862;51.886;17.078;2022-12-07T07:36:36;13.80;;;12.90;;
21402;SDS011;10862;51.886;17.078;2022-12-07T07:39:02;13.50;;;12.90;;
21402;SDS011;10862;51.886;17.078;2022-12-07T07:41:28;19.03;;;17.50;;
21402;SDS011;10862;51.886;17.078;2022-12-07T07:43:54;12.10;;;11.60;;
21402;SDS011;10862;51.886;17.078;2022-12-07T07:46:19;12.77;;;12.17;;
21402;SDS011;10862;51.886;17.078;2022-12-07T07:48:45;13.23;;;12.63;;
21402;SDS011;10862;51.886;17.078;2022-12-07T07:51:10;12.40;;;11.87;;
21402;SDS011;10862;51.886;17.078;2022-12-07T07:53:36;14.10;;;13.50;;
21402;SDS011;10862;51.886;17.078;2022-12-07T07:56:02;13.70;;;12.80;;
21402;SDS011;10862;51.886;17.078;2022-12-07T07:58:28;13.23;;;12.43;;
21402;SDS011;10862;51.886;17.078;2022-12-07T08:00:54;14.60;;;13.90;;
21402;SDS011;10862;51.886;17.078;2022-12-07T08:03:19;14.70;;;13.90;;
21402;SDS011;10862;51.886;17.078;2022-12-07T08:05:45;13.33;;;12.63;;
21402;SDS011;10862;51.886;17.078;2022-12-07T08:08:11;18.83;;;17.37;;
21402;SDS011;10862;51.886;17.078;2022-12-07T08:10:36;13.87;;;13.27;;
21402;SDS011;10862;51.886;17.078;2022-12-07T08:13:02;15.63;;;14.83;;
21402;SDS011;10862;51.886;17.078;2022-12-07T08:15:38;14.50;;;13.67;;
21402;SDS011;10862;51.886;17.078;2022-12-07T08:18:05;13.67;;;13.07;;
21402;SDS011;10862;51.886;17.078;2022-12-07T08:20:31;16.50;;;15.33;;
21402;SDS011;10862;51.886;17.078;2022-12-07T08:22:57;16.00;;;15.17;;
21402;SDS011;10862;51.886;17.078;2022-12-07T08:25:23;16.73;;;15.83;;
21402;SDS011;10862;51.886;17.078;2022-12-07T08:27:49;18.50;;;17.37;;
21402;SDS011;10862;51.886;17.078;2022-12-07T08:30:16;14.13;;;13.43;;
21402;SDS011;10862;51.886;17.078;2022-12-07T08:32:44;13.80;;;13.10;;
21402;SDS011;10862;51.886;17.078;2022-12-07T08:35:10;14.07;;;13.37;;
21402;SDS011;10862;51.886;17.078;2022-12-07T08:37:36;26.00;;;24.57;;
21402;SDS011;10862;51.886;17.078;2022-12-07T08:40:02;21.53;;;20.53;;
21402;SDS011;10862;51.886;17.078;2022-12-07T08:42:29;19.70;;;18.67;;
21402;SDS011;10862;51.886;17.078;2022-12-07T08:45:02;23.77;;;22.47;;
21402;SDS011;10862;51.886;17.078;2022-12-07T08:47:30;21.40;;;20.30;;
21402;SDS011;10862;51.886;17.078;2022-12-07T08:49:56;18.80;;;17.90;;
21402;SDS011;10862;51.886;17.078;2022-12-07T08:52:22;21.37;;;19.43;;
21402;SDS011;10862;51.886;17.078;2022-12-07T08:54:47;19.30;;;18.40;;
21402;SDS011;10862;51.886;17.078;2022-12-07T08:57:13;20.03;;;19.07;;
21402;SDS011;10862;51.886;17.078;2022-12-07T08:59:39;17.97;;;17.17;;
21402;SDS011;10862;51.886;17.078;2022-12-07T09:02:05;19.90;;;19.00;;
21402;SDS011;10862;51.886;17.078;2022-12-07T09:04:31;19.07;;;18.23;;
21402;SDS011;10862;51.886;17.078;2022-12-07T09:06:57;17.20;;;16.40;;
21402;SDS011;10862;51.886;17.078;2022-12-07T09:09:23;19.87;;;18.87;;
21402;SDS011;10862;51.886;17.078;2022-12-07T09:11:49;23.60;;;22.50;;
21402;SDS011;10862;51.886;17.078;2022-12-07T09:14:14;20.03;;;19.13;;
21402;SDS011;10862;51.886;17.078;2022-12-07T09:16:40;22.73;;;21.63;;
21402;SDS011;10862;51.886;17.078;2022-12-07T09:19:06;23.73;;;22.63;;
21402;SDS011;10862;51.886;17.078;2022-12-07T09:21:32;23.57;;;22.47;;
21402;SDS011;10862;51.886;17.078;2022-12-07T09:23:58;23.17;;;21.67;;
21402;SDS011;10862;51.886;17.078;2022-12-07T09:26:24;25.20;;;24.00;;
21402;SDS011;10862;51.886;17.078;2022-12-07T09:28:49;13.77;;;13.07;;
21402;SDS011;10862;51.886;17.078;2022-12-07T09:31:15;12.90;;;12.20;;
21402;SDS011;10862;51.886;17.078;2022-12-07T09:33:41;14.13;;;13.53;;
21402;SDS011;10862;51.886;17.078;2022-12-07T09:36:06;14.67;;;13.87;;
21402;SDS011;10862;51.886;17.078;2022-12-07T09:38:32;12.47;;;11.87;;
21402;SDS011;10862;51.886;17.078;2022-12-07T09:40:58;11.70;;;11.20;;
21402;SDS011;10862;51.886;17.078;2022-12-07T09:43:33;11.00;;;10.50;;
21402;SDS011;10862;51.886;17.078;2022-12-07T09:46:01;14.83;;;13.90;;
21402;SDS011;10862;51.886;17.078;2022-12-07T09:48:34;13.47;;;12.83;;
21402;SDS011;10862;51.886;17.078;2022-12-07T09:51:09;14.27;;;13.50;;
21402;SDS011;10862;51.886;17.078;2022-12-07T09:53:48;12.63;;;12.00;;
21402;SDS011;10862;51.886;17.078;2022-12-07T09:56:15;14.23;;;13.60;;
21402;SDS011;10862;51.886;17.078;2022-12-07T09:58:42;14.43;;;13.77;;
21402;SDS011;10862;51.886;17.078;2022-12-07T10:01:11;16.83;;;16.03;;
21402;SDS011;10862;51.886;17.078;2022-12-07T10:03:45;16.03;;;15.27;;
21402;SDS011;10862;51.886;17.078;2022-12-07T10:06:33;16.13;;;15.33;;
21402;SDS011;10862;51.886;17.078;2022-12-07T10:08:58;20.03;;;18.93;;
21402;SDS011;10862;51.886;17.078;2022-12-07T10:11:24;16.13;;;15.43;;
21402;SDS011;10862;51.886;17.078;2022-12-07T10:13:51;17.00;;;16.10;;
21402;SDS011;10862;51.886;17.078;2022-12-07T10:18:51;15.60;;;14.90;;
21402;SDS011;10862;51.886;17.078;2022-12-07T10:21:18;16.37;;;15.57;;
21402;SDS011;10862;51.886;17.078;2022-12-07T10:24:00;14.97;;;14.27;;
21402;SDS011;10862;51.886;17.078;2022-12-07T10:29:04;14.00;;;13.30;;
21402;SDS011;10862;51.886;17.078;2022-12-07T10:31:41;24.57;;;23.30;;
21402;SDS011;10862;51.886;17.078;2022-12-07T10:34:27;21.13;;;20.13;;
21402;SDS011;10862;51.886;17.078;2022-12-07T10:37:06;21.60;;;20.40;;
21402;SDS011;10862;51.886;17.078;2022-12-07T10:39:49;20.30;;;19.03;;
21402;SDS011;10862;51.886;17.078;2022-12-07T10:44:44;25.77;;;20.40;;
21402;SDS011;10862;51.886;17.078;2022-12-07T11:00:22;16.93;;;16.13;;
21402;SDS011;10862;51.886;17.078;2022-12-07T11:11:36;19.07;;;18.03;;
21402;SDS011;10862;51.886;17.078;2022-12-07T11:14:24;17.67;;;16.87;;
21402;SDS011;10862;51.886;17.078;2022-12-07T11:25:15;15.03;;;14.20;;
21402;SDS011;10862;51.886;17.078;2022-12-07T11:30:51;18.47;;;17.03;;
21402;SDS011;10862;51.886;17.078;2022-12-07T11:33:19;18.70;;;17.87;;
21402;SDS011;10862;51.886;17.078;2022-12-07T11:41:08;18.73;;;17.77;;
21402;SDS011;10862;51.886;17.078;2022-12-07T11:44:01;18.03;;;17.23;;
21402;SDS011;10862;51.886;17.078;2022-12-07T11:49:24;19.17;;;18.17;;
21402;SDS011;10862;51.886;17.078;2022-12-07T11:52:06;18.17;;;17.27;;
21402;SDS011;10862;51.886;17.078;2022-12-07T11:54:55;19.73;;;18.80;;
21402;SDS011;10862;51.886;17.078;2022-12-07T11:57:35;19.33;;;18.40;;
21402;SDS011;10862;51.886;17.078;2022-12-07T12:00:12;13.17;;;12.40;;
21402;SDS011;10862;51.886;17.078;2022-12-07T12:02:48;13.00;;;12.27;;
21402;SDS011;10862;51.886;17.078;2022-12-07T12:05:18;15.03;;;14.13;;
21402;SDS011;10862;51.886;17.078;2022-12-07T12:07:48;15.37;;;14.43;;
21402;SDS011;10862;51.886;17.078;2022-12-07T12:16:22;18.67;;;17.47;;
21402;SDS011;10862;51.886;17.078;2022-12-07T12:21:43;12.67;;;12.07;;
21402;SDS011;10862;51.886;17.078;2022-12-07T12:24:12;14.13;;;13.43;;
21402;SDS011;10862;51.886;17.078;2022-12-07T12:29:32;11.57;;;10.93;;
21402;SDS011;10862;51.886;17.078;2022-12-07T12:32:05;13.90;;;13.20;;
21402;SDS011;10862;51.886;17.078;2022-12-07T12:45:17;18.03;;;16.67;;
21402;SDS011;10862;51.886;17.078;2022-12-07T12:47:53;10.57;;;10.07;;
21402;SDS011;10862;51.886;17.078;2022-12-07T12:52:53;12.40;;;11.83;;
21402;SDS011;10862;51.886;17.078;2022-12-07T13:00:43;18.07;;;17.07;;
21402;SDS011;10862;51.886;17.078;2022-12-07T13:03:25;19.43;;;18.33;;
21402;SDS011;10862;51.886;17.078;2022-12-07T13:06:16;15.90;;;15.20;;
21402;SDS011;10862;51.886;17.078;2022-12-07T13:08:58;16.50;;;15.33;;
21402;SDS011;10862;51.886;17.078;2022-12-07T13:11:28;19.63;;;18.43;;
21402;SDS011;10862;51.886;17.078;2022-12-07T13:17:02;23.57;;;21.53;;
21402;SDS011;10862;51.886;17.078;2022-12-07T13:20:42;17.00;;;15.97;;
21402;SDS011;10862;51.886;17.078;2022-12-07T13:24:59;19.47;;;18.33;;
21402;SDS011;10862;51.886;17.078;2022-12-07T13:28:07;15.53;;;14.77;;
21402;SDS011;10862;51.886;17.078;2022-12-07T13:33:23;20.57;;;19.20;;
21402;SDS011;10862;51.886;17.078;2022-12-07T13:35:53;20.00;;;18.90;;
21402;SDS011;10862;51.886;17.078;2022-12-07T13:38:32;19.53;;;18.53;;
21402;SDS011;10862;51.886;17.078;2022-12-07T13:41:05;19.50;;;18.50;;
21402;SDS011;10862;51.886;17.078;2022-12-07T13:43:49;17.33;;;16.40;;
21402;SDS011;10862;51.886;17.078;2022-12-07T13:46:19;16.43;;;15.70;;
21402;SDS011;10862;51.886;17.078;2022-12-07T13:48:51;18.00;;;17.20;;
21402;SDS011;10862;51.886;17.078;2022-12-07T13:51:18;19.87;;;18.80;;
21402;SDS011;10862;51.886;17.078;2022-12-07T13:53:50;19.30;;;18.27;;
21402;SDS011;10862;51.886;17.078;2022-12-07T13:56:25;18.73;;;17.87;;
21402;SDS011;10862;51.886;17.078;2022-12-07T13:58:56;21.47;;;20.10;;
21402;SDS011;10862;51.886;17.078;2022-12-07T14:01:22;20.37;;;19.27;;
21402;SDS011;10862;51.886;17.078;2022-12-07T14:03:49;25.67;;;24.07;;
21402;SDS011;10862;51.886;17.078;2022-12-07T14:09:05;14.43;;;13.57;;
21402;SDS011;10862;51.886;17.078;2022-12-07T14:11:42;15.87;;;14.70;;
21402;SDS011;10862;51.886;17.078;2022-12-07T14:14:14;15.10;;;14.27;;
21402;SDS011;10862;51.886;17.078;2022-12-07T14:19:52;12.40;;;11.80;;
21402;SDS011;10862;51.886;17.078;2022-12-07T14:22:37;16.03;;;14.97;;
21402;SDS011;10862;51.886;17.078;2022-12-07T14:27:38;16.57;;;15.40;;
21402;SDS011;10862;51.886;17.078;2022-12-07T14:30:05;17.33;;;16.23;;
21402;SDS011;10862;51.886;17.078;2022-12-07T14:32:31;14.40;;;13.60;;
21402;SDS011;10862;51.886;17.078;2022-12-07T14:35:10;17.77;;;16.07;;
21402;SDS011;10862;51.886;17.078;2022-12-07T14:37:37;13.87;;;13.03;;
21402;SDS011;10862;51.886;17.078;2022-12-07T14:40:04;13.50;;;12.63;;
21402;SDS011;10862;51.886;17.078;2022-12-07T14:42:31;12.90;;;12.13;;
21402;SDS011;10862;51.886;17.078;2022-12-07T14:44:59;12.77;;;12.17;;
21402;SDS011;10862;51.886;17.078;2022-12-07T14:47:25;12.83;;;12.23;;
21402;SDS011;10862;51.886;17.078;2022-12-07T14:49:51;14.87;;;14.07;;
21402;SDS011;10862;51.886;17.078;2022-12-07T14:52:22;14.67;;;13.53;;
21402;SDS011;10862;51.886;17.078;2022-12-07T14:54:51;16.07;;;15.07;;
21402;SDS011;10862;51.886;17.078;2022-12-07T14:57:17;19.77;;;18.23;;
21402;SDS011;10862;51.886;17.078;2022-12-07T14:59:43;16.73;;;15.43;;
21402;SDS011;10862;51.886;17.078;2022-12-07T15:02:10;16.57;;;15.23;;
21402;SDS011;10862;51.886;17.078;2022-12-07T15:04:38;16.57;;;15.80;;
21402;SDS011;10862;51.886;17.078;2022-12-07T15:07:04;13.43;;;12.83;;
21402;SDS011;10862;51.886;17.078;2022-12-07T15:09:31;17.30;;;16.13;;
21402;SDS011;10862;51.886;17.078;2022-12-07T15:11:56;13.93;;;13.30;;
21402;SDS011;10862;51.886;17.078;2022-12-07T15:14:22;14.23;;;13.53;;
21402;SDS011;10862;51.886;17.078;2022-12-07T15:16:48;15.87;;;14.97;;
21402;SDS011;10862;51.886;17.078;2022-12-07T15:19:14;14.70;;;13.83;;
21402;SDS011;10862;51.886;17.078;2022-12-07T15:21:47;16.73;;;15.83;;
21402;SDS011;10862;51.886;17.078;2022-12-07T15:24:13;14.67;;;13.97;;
21402;SDS011;10862;51.886;17.078;2022-12-07T15:26:40;15.20;;;14.47;;
21402;SDS011;10862;51.886;17.078;2022-12-07T15:29:06;18.03;;;16.33;;
21402;SDS011;10862;51.886;17.078;2022-12-07T15:31:33;15.77;;;15.03;;
21402;SDS011;10862;51.886;17.078;2022-12-07T15:33:59;14.17;;;13.50;;
21402;SDS011;10862;51.886;17.078;2022-12-07T15:36:26;14.33;;;13.63;;
21402;SDS011;10862;51.886;17.078;2022-12-07T15:38:53;15.07;;;14.27;;
21402;SDS011;10862;51.886;17.078;2022-12-07T15:41:19;14.57;;;13.77;;
21402;SDS011;10862;51.886;17.078;2022-12-07T15:43:45;15.97;;;14.90;;
21402;SDS011;10862;51.886;17.078;2022-12-07T15:46:30;14.37;;;13.67;;
21402;SDS011;10862;51.886;17.078;2022-12-07T15:49:00;16.20;;;15.47;;
21402;SDS011;10862;51.886;17.078;2022-12-07T15:51:26;15.87;;;14.77;;
21402;SDS011;10862;51.886;17.078;2022-12-07T15:53:52;14.10;;;13.20;;
21402;SDS011;10862;51.886;17.078;2022-12-07T15:56:18;12.17;;;11.57;;
21402;SDS011;10862;51.886;17.078;2022-12-07T15:58:44;12.03;;;11.23;;
21402;SDS011;10862;51.886;17.078;2022-12-07T16:01:14;15.47;;;14.40;;
21402;SDS011;10862;51.886;17.078;2022-12-07T16:03:42;18.20;;;16.57;;
21402;SDS011;10862;51.886;17.078;2022-12-07T16:06:08;19.67;;;18.10;;
21402;SDS011;10862;51.886;17.078;2022-12-07T16:08:34;21.30;;;19.67;;
21402;SDS011;10862;51.886;17.078;2022-12-07T16:11:04;20.27;;;18.83;;
21402;SDS011;10862;51.886;17.078;2022-12-07T16:13:30;21.93;;;20.27;;
21402;SDS011;10862;51.886;17.078;2022-12-07T16:15:56;26.57;;;24.33;;
21402;SDS011;10862;51.886;17.078;2022-12-07T16:18:21;21.03;;;19.43;;
21402;SDS011;10862;51.886;17.078;2022-12-07T16:20:48;20.53;;;19.07;;
21402;SDS011;10862;51.886;17.078;2022-12-07T16:23:14;30.93;;;20.17;;
21402;SDS011;10862;51.886;17.078;2022-12-07T16:25:40;16.03;;;15.13;;
21402;SDS011;10862;51.886;17.078;2022-12-07T16:28:06;17.13;;;14.90;;
21402;SDS011;10862;51.886;17.078;2022-12-07T16:30:32;18.20;;;16.30;;
21402;SDS011;10862;51.886;17.078;2022-12-07T16:32:58;16.57;;;15.67;;